Time;durP1;ratioP1;P1;durP2;ratioP2;P2;SDS_P1;SDS_P2;PMS_P1;PMS_P2;Temp;Humidity;BMP_temperature;BMP_pressure;BME280_temperature;BME280_humidity;BME280_pressure;Samples;Min_cycle;Max_cycle;Signal;HPM_P1;HPM_P2
2021/01/17 00:00:33;;;;;;;11.60;8.93;;;-2.50;99.90;;;;;;5051208;28;20231;-69
2021/01/17 00:03:00;;;;;;;10.18;7.32;;;-2.50;99.90;;;;;;5050333;28;20205;-69
2021/01/17 00:05:28;;;;;;;13.60;8.60;;;-2.50;99.90;;;;;;5050654;28;20252;-69
2021/01/17 00:07:54;;;;;;;14.05;8.77;;;-2.40;99.90;;;;;;5051646;28;20225;-69
2021/01/17 00:10:23;;;;;;;11.48;8.10;;;-2.30;99.90;;;;;;5051067;28;20736;-69
2021/01/17 00:12:50;;;;;;;13.18;9.65;;;-2.30;99.90;;;;;;5050381;28;20201;-69
2021/01/17 00:15:17;;;;;;;12.63;8.18;;;-2.30;99.90;;;;;;5050620;28;20221;-69
2021/01/17 00:17:46;;;;;;;14.95;8.98;;;-2.30;99.90;;;;;;5050644;28;20212;-70
2021/01/17 00:20:13;;;;;;;12.95;8.50;;;-2.30;99.90;;;;;;5050535;28;20205;-69
2021/01/17 00:22:41;;;;;;;12.32;9.18;;;-2.20;99.90;;;;;;5050097;28;20212;-70
2021/01/17 00:25:10;;;;;;;11.00;8.20;;;-2.30;99.90;;;;;;5050435;28;20271;-69
2021/01/17 00:27:36;;;;;;;10.27;8.15;;;-2.30;99.90;;;;;;5050330;28;20723;-69
2021/01/17 00:30:05;;;;;;;12.15;8.57;;;-2.20;99.90;;;;;;5050472;28;20673;-71
2021/01/17 00:32:31;;;;;;;12.05;7.88;;;-2.20;99.90;;;;;;5049830;28;20660;-69
2021/01/17 00:34:58;;;;;;;11.02;7.90;;;-2.20;99.90;;;;;;5050378;28;20228;-69
2021/01/17 00:37:24;;;;;;;12.48;7.57;;;-2.20;99.90;;;;;;5050324;28;20672;-71
2021/01/17 00:39:50;;;;;;;12.52;8.25;;;-2.10;99.90;;;;;;5050150;28;20205;-71
2021/01/17 00:42:18;;;;;;;12.23;8.30;;;-2.10;99.90;;;;;;5048829;28;20205;-71
2021/01/17 00:44:45;;;;;;;13.00;7.78;;;-2.20;99.90;;;;;;5049992;28;20228;-71
2021/01/17 00:47:12;;;;;;;12.73;7.28;;;-2.10;99.90;;;;;;5049971;28;20208;-70
2021/01/17 00:49:38;;;;;;;10.70;7.40;;;-2.20;99.90;;;;;;5050132;28;20219;-70
2021/01/17 00:52:05;;;;;;;11.60;7.55;;;-2.20;99.90;;;;;;5049473;28;20193;-70
2021/01/17 00:54:32;;;;;;;12.48;8.88;;;-2.20;99.90;;;;;;5050132;28;20271;-70
2021/01/17 00:57:04;;;;;;;11.77;7.93;;;-2.20;99.90;;;;;;5050499;28;20216;-71
2021/01/17 00:59:30;;;;;;;11.32;8.13;;;-2.20;99.90;;;;;;5050102;28;20225;-70
2021/01/17 01:01:56;;;;;;;12.95;8.52;;;-2.10;99.90;;;;;;5049110;28;20205;-70
2021/01/17 01:04:22;;;;;;;13.52;9.60;;;-2.10;99.90;;;;;;5049612;28;20237;-70
2021/01/17 01:06:51;;;;;;;15.73;9.68;;;-2.10;99.90;;;;;;5049842;28;20581;-70
2021/01/17 01:09:19;;;;;;;12.50;9.43;;;-2.10;99.90;;;;;;5049860;28;20232;-70
2021/01/17 01:11:47;;;;;;;16.15;10.25;;;-2.10;99.90;;;;;;5049219;28;20299;-71
2021/01/17 01:14:13;;;;;;;14.95;9.48;;;-2.10;99.90;;;;;;5049778;28;20278;-70
2021/01/17 01:16:40;;;;;;;15.32;10.20;;;-2.20;99.90;;;;;;5049930;28;20208;-70
2021/01/17 01:19:06;;;;;;;16.73;9.98;;;-2.20;99.90;;;;;;5049414;28;20205;-70
2021/01/17 01:21:34;;;;;;;15.13;10.30;;;-2.10;99.90;;;;;;5049499;28;20219;-70
2021/01/17 01:24:01;;;;;;;17.83;11.65;;;-2.20;99.90;;;;;;5049324;28;21097;-70
2021/01/17 01:26:35;;;;;;;14.55;10.57;;;-2.20;99.90;;;;;;5049659;28;20204;-70
2021/01/17 01:29:02;;;;;;;15.13;10.50;;;-2.20;99.90;;;;;;5049381;28;20224;-71
2021/01/17 01:31:28;;;;;;;15.07;9.32;;;-2.20;99.90;;;;;;5049794;28;20205;-70
2021/01/17 01:33:56;;;;;;;16.02;11.98;;;-2.20;99.90;;;;;;5049570;28;20604;-70
2021/01/17 01:36:24;;;;;;;17.92;11.50;;;-2.20;99.90;;;;;;5050150;28;20267;-70
2021/01/17 01:38:52;;;;;;;17.00;10.45;;;-2.20;99.90;;;;;;5049746;28;20201;-70
2021/01/17 01:41:19;;;;;;;16.13;11.70;;;-2.20;99.90;;;;;;5049042;28;20208;-70
2021/01/17 01:43:47;;;;;;;19.27;12.15;;;-2.20;99.90;;;;;;5048726;28;20609;-70
2021/01/17 01:46:15;;;;;;;17.30;10.93;;;-2.20;99.90;;;;;;5049032;28;20200;-70
2021/01/17 01:48:44;;;;;;;15.35;9.98;;;-2.10;99.90;;;;;;5049338;28;20655;-70
2021/01/17 01:51:12;;;;;;;15.98;10.52;;;-2.10;99.90;;;;;;5049064;28;20200;-70
2021/01/17 01:53:39;;;;;;;16.98;10.60;;;-2.10;99.90;;;;;;5048604;28;20208;-70
2021/01/17 01:56:05;;;;;;;16.08;10.68;;;-2.10;99.90;;;;;;5049539;28;20220;-70
2021/01/17 01:58:33;;;;;;;14.63;9.35;;;-2.20;99.90;;;;;;5049661;28;20212;-70
2021/01/17 02:01:00;;;;;;;14.10;9.18;;;-2.10;99.90;;;;;;5049072;28;20201;-70
2021/01/17 02:03:26;;;;;;;15.05;9.68;;;-2.10;99.90;;;;;;5048549;28;20208;-70
2021/01/17 02:05:53;;;;;;;14.45;10.98;;;-2.20;99.90;;;;;;5047787;28;20235;-70
2021/01/17 02:08:47;;;;;;;15.02;8.88;;;-2.20;99.90;;;;;;5046269;28;20588;-70
2021/01/17 02:11:22;;;;;;;13.73;8.90;;;-2.20;99.90;;;;;;5048805;28;20259;-71
2021/01/17 02:13:56;;;;;;;15.02;9.63;;;-2.20;99.90;;;;;;5048384;28;20246;-71
2021/01/17 02:16:24;;;;;;;15.18;9.70;;;-2.20;99.90;;;;;;5048817;28;20209;-70
2021/01/17 02:18:53;;;;;;;19.02;10.75;;;-2.20;99.90;;;;;;5049146;28;20193;-70
2021/01/17 02:21:20;;;;;;;15.70;10.50;;;-2.20;99.90;;;;;;5048595;28;20220;-70
2021/01/17 02:23:52;;;;;;;15.02;10.50;;;-2.20;99.90;;;;;;5048444;28;20216;-70
2021/01/17 02:26:20;;;;;;;18.85;10.38;;;-2.20;99.90;;;;;;5049226;28;20306;-71
2021/01/17 02:28:47;;;;;;;16.20;10.32;;;-2.20;99.90;;;;;;5049891;28;20271;-70
2021/01/17 02:31:15;;;;;;;14.75;9.75;;;-2.20;99.90;;;;;;5048833;28;20574;-70
2021/01/17 02:33:42;;;;;;;15.38;9.68;;;-2.20;99.90;;;;;;5048219;28;20209;-71
2021/01/17 02:36:23;;;;;;;14.75;9.75;;;-2.20;99.90;;;;;;5048373;28;20673;-70
2021/01/17 02:39:05;;;;;;;14.93;9.75;;;-2.20;99.90;;;;;;5048639;28;20204;-70
2021/01/17 02:41:38;;;;;;;14.65;9.23;;;-2.30;99.90;;;;;;5048463;28;20290;-70
2021/01/17 02:44:06;;;;;;;18.85;10.55;;;-2.30;99.90;;;;;;5048070;28;20248;-71
2021/01/17 02:46:32;;;;;;;12.88;9.60;;;-2.30;99.90;;;;;;5048557;28;20209;-70
2021/01/17 02:48:58;;;;;;;15.52;8.90;;;-2.30;99.90;;;;;;5048524;28;20229;-70
2021/01/17 02:51:26;;;;;;;22.65;10.68;;;-2.30;99.90;;;;;;5047948;28;20295;-70
2021/01/17 02:54:00;;;;;;;16.17;9.95;;;-2.30;99.90;;;;;;5047835;28;20278;-70
2021/01/17 02:56:31;;;;;;;16.92;9.50;;;-2.30;99.90;;;;;;5048249;28;20207;-70
2021/01/17 02:59:01;;;;;;;14.13;9.73;;;-2.20;99.90;;;;;;5048291;28;20240;-70
2021/01/17 03:01:30;;;;;;;17.70;9.55;;;-2.20;99.90;;;;;;5048093;28;20716;-70
2021/01/17 03:04:06;;;;;;;14.45;9.40;;;-2.30;99.90;;;;;;5047451;28;20205;-70
2021/01/17 03:06:32;;;;;;;14.60;9.00;;;-2.30;99.90;;;;;;5052145;28;20200;-70
2021/01/17 03:08:59;;;;;;;14.80;9.45;;;-2.30;99.90;;;;;;5051556;28;20769;-70
2021/01/17 03:11:26;;;;;;;15.25;9.82;;;-2.30;99.90;;;;;;5051671;28;20201;-70
2021/01/17 03:13:54;;;;;;;14.93;9.52;;;-2.30;99.90;;;;;;5051079;28;20197;-71
2021/01/17 03:16:21;;;;;;;15.45;9.40;;;-2.30;99.90;;;;;;5051866;28;20205;-70
2021/01/17 03:18:47;;;;;;;15.23;10.20;;;-2.30;99.90;;;;;;5052010;28;20201;-71
2021/01/17 03:21:13;;;;;;;17.63;11.77;;;-2.20;99.90;;;;;;5051482;28;20208;-70
2021/01/17 03:23:39;;;;;;;14.90;10.10;;;-2.30;99.90;;;;;;5051278;28;20630;-71
2021/01/17 03:26:05;;;;;;;18.60;10.55;;;-2.40;99.90;;;;;;5051304;28;20232;-70
2021/01/17 03:28:31;;;;;;;16.55;10.50;;;-2.30;99.90;;;;;;5051626;28;20227;-70
2021/01/17 03:30:58;;;;;;;17.45;10.35;;;-2.30;99.90;;;;;;5051575;28;20726;-70
2021/01/17 03:33:25;;;;;;;18.92;10.93;;;-2.30;99.90;;;;;;5050998;28;20235;-70
2021/01/17 03:35:51;;;;;;;15.27;9.82;;;-2.30;99.90;;;;;;5051509;28;20217;-71
2021/01/17 03:38:17;;;;;;;15.27;10.60;;;-2.30;99.90;;;;;;5051516;28;20197;-71
2021/01/17 03:40:43;;;;;;;12.13;8.88;;;-2.20;99.90;;;;;;5051373;28;20208;-71
2021/01/17 03:43:09;;;;;;;15.73;9.95;;;-2.20;99.90;;;;;;5050843;28;20197;-70
2021/01/17 03:45:36;;;;;;;15.68;10.52;;;-2.20;99.90;;;;;;5051734;28;20228;-70
2021/01/17 03:48:02;;;;;;;16.05;11.20;;;-2.20;99.90;;;;;;5051057;28;20221;-70
2021/01/17 03:50:29;;;;;;;14.55;10.52;;;-2.30;99.90;;;;;;5050922;28;20209;-70
2021/01/17 03:52:55;;;;;;;15.27;10.35;;;-2.20;99.90;;;;;;5050679;28;20614;-70
2021/01/17 03:55:21;;;;;;;15.48;9.98;;;-2.20;99.90;;;;;;5050650;28;20225;-70
2021/01/17 03:57:48;;;;;;;14.38;10.10;;;-2.30;99.90;;;;;;5051185;28;20639;-70
2021/01/17 04:00:15;;;;;;;16.52;10.88;;;-2.30;99.90;;;;;;5050741;28;20205;-70
2021/01/17 04:02:41;;;;;;;15.07;9.60;;;-2.30;99.90;;;;;;5050463;28;20290;-70
2021/01/17 04:05:09;;;;;;;18.13;10.68;;;-2.40;99.90;;;;;;5050517;28;20469;-70
2021/01/17 04:07:36;;;;;;;15.07;10.70;;;-2.40;99.90;;;;;;5050629;28;20205;-70
2021/01/17 04:10:02;;;;;;;16.92;10.90;;;-2.30;99.90;;;;;;5050822;28;20212;-70
2021/01/17 04:12:29;;;;;;;16.35;10.73;;;-2.30;99.90;;;;;;5050060;28;20209;-70
2021/01/17 04:14:55;;;;;;;17.25;11.00;;;-2.30;99.90;;;;;;5050663;28;20232;-70
2021/01/17 04:17:21;;;;;;;17.15;10.63;;;-2.30;99.90;;;;;;5050475;28;20576;-70
2021/01/17 04:19:47;;;;;;;19.80;11.35;;;-2.30;99.90;;;;;;5050665;28;20197;-70
2021/01/17 04:22:13;;;;;;;18.13;10.48;;;-2.30;99.90;;;;;;5049805;28;20227;-70
2021/01/17 04:24:40;;;;;;;13.57;9.73;;;-2.20;99.90;;;;;;5050298;28;20236;-70
2021/01/17 04:27:06;;;;;;;17.33;10.68;;;-2.20;99.90;;;;;;5050239;28;20584;-71
2021/01/17 04:29:33;;;;;;;20.63;10.95;;;-2.20;99.90;;;;;;5050236;28;20220;-70
2021/01/17 04:32:00;;;;;;;18.40;11.55;;;-2.10;99.90;;;;;;5049765;28;20628;-70
2021/01/17 04:34:26;;;;;;;17.73;10.77;;;-2.20;99.90;;;;;;5050280;28;20225;-70
2021/01/17 04:36:52;;;;;;;17.92;11.40;;;-2.10;99.90;;;;;;5050274;28;20263;-70
2021/01/17 04:39:19;;;;;;;19.58;11.65;;;-2.10;99.90;;;;;;5050136;28;20703;-70
2021/01/17 04:41:46;;;;;;;18.00;11.00;;;-2.10;99.90;;;;;;5049615;28;20202;-70
2021/01/17 04:44:21;;;;;;;17.20;9.95;;;-2.10;99.90;;;;;;5049970;28;20254;-70
2021/01/17 04:46:49;;;;;;;17.30;10.05;;;-2.10;99.90;;;;;;5050210;28;20200;-71
2021/01/17 04:49:20;;;;;;;21.17;10.63;;;-2.20;99.90;;;;;;5049791;28;20264;-70
2021/01/17 04:51:50;;;;;;;18.35;11.65;;;-2.30;99.90;;;;;;5049809;28;20201;-70
2021/01/17 04:54:16;;;;;;;18.80;12.82;;;-2.30;99.90;;;;;;5049876;28;20221;-70
2021/01/17 04:56:52;;;;;;;16.95;10.75;;;-2.20;99.90;;;;;;5050230;28;20707;-70
2021/01/17 04:59:24;;;;;;;17.05;10.85;;;-2.10;99.90;;;;;;5049768;28;20196;-70
2021/01/17 05:02:05;;;;;;;19.05;11.23;;;-2.10;99.90;;;;;;5049234;28;20200;-71
2021/01/17 05:07:22;;;;;;;17.42;11.38;;;-2.10;99.90;;;;;;5127649;22;20245;-90
2021/01/17 05:09:56;;;;;;;17.85;11.50;;;-2.10;99.90;;;;;;5093988;28;20223;-92
2021/01/17 05:12:31;;;;;;;18.08;10.70;;;-2.10;99.90;;;;;;5094446;28;20253;-92
2021/01/17 05:14:59;;;;;;;19.08;12.02;;;-2.20;99.90;;;;;;5094291;28;20679;-91
2021/01/17 05:17:25;;;;;;;19.58;12.15;;;-2.10;99.90;;;;;;5094048;28;20759;-91
2021/01/17 05:19:52;;;;;;;20.52;11.38;;;-2.10;99.90;;;;;;5094492;28;20196;-91
2021/01/17 05:22:20;;;;;;;18.15;10.43;;;-2.20;99.90;;;;;;5093818;28;20212;-92
2021/01/17 05:24:52;;;;;;;20.55;12.55;;;-2.20;99.90;;;;;;5094172;28;20219;-91
2021/01/17 05:27:18;;;;;;;16.52;10.55;;;-2.20;99.90;;;;;;5093538;28;20235;-91
2021/01/17 05:29:46;;;;;;;19.80;11.70;;;-2.20;99.90;;;;;;5095019;28;20221;-92
2021/01/17 05:32:14;;;;;;;20.70;13.35;;;-2.20;99.90;;;;;;5094244;28;20207;-92
2021/01/17 05:34:41;;;;;;;19.33;11.25;;;-2.30;99.90;;;;;;5095247;28;20286;-91
2021/01/17 05:37:09;;;;;;;18.70;12.23;;;-2.20;99.90;;;;;;5094790;28;20228;-92
2021/01/17 05:39:59;;;;;;;18.42;11.55;;;-2.20;99.90;;;;;;5095096;28;20204;-92
2021/01/17 05:42:27;;;;;;;16.15;11.55;;;-2.10;99.90;;;;;;5095087;28;20208;-91
2021/01/17 05:44:57;;;;;;;19.80;12.45;;;-2.10;99.90;;;;;;5097628;28;20252;-92
2021/01/17 05:47:25;;;;;;;16.98;10.95;;;-2.00;99.90;;;;;;5096030;28;20344;-92
2021/01/17 05:50:10;;;;;;;18.30;11.70;;;-2.00;99.90;;;;;;5096457;28;20220;-91
2021/01/17 05:53:13;;;;;;;19.48;11.20;;;-2.00;99.90;;;;;;5101541;28;20231;-93
2021/01/17 05:55:41;;;;;;;21.05;12.48;;;-2.00;99.90;;;;;;5115977;28;20338;-92
2021/01/17 05:58:24;;;;;;;22.42;13.70;;;-1.90;99.90;;;;;;5116958;28;20246;-92
2021/01/17 06:00:53;;;;;;;21.23;12.75;;;-1.90;99.90;;;;;;5117096;28;20234;-91
2021/01/17 06:03:21;;;;;;;18.58;11.98;;;-1.80;99.90;;;;;;5117065;28;20267;-92
2021/01/17 06:05:49;;;;;;;20.30;13.55;;;-1.80;99.90;;;;;;5108544;28;20212;-91
2021/01/17 06:08:19;;;;;;;19.20;13.20;;;-1.80;99.90;;;;;;5095583;28;20227;-92
2021/01/17 06:10:47;;;;;;;22.52;12.23;;;-1.70;99.90;;;;;;5095023;28;20265;-92
2021/01/17 06:13:20;;;;;;;17.70;12.73;;;-1.80;99.90;;;;;;5093687;28;20212;-92
2021/01/17 06:15:47;;;;;;;19.67;12.07;;;-1.80;99.90;;;;;;5093461;28;20268;-91
2021/01/17 06:18:18;;;;;;;17.77;12.10;;;-1.60;99.90;;;;;;5092948;28;20195;-91
2021/01/17 06:20:45;;;;;;;18.45;11.93;;;-1.40;99.90;;;;;;5093329;28;20208;-91
2021/01/17 06:23:13;;;;;;;23.60;14.02;;;-1.40;99.90;;;;;;5092602;28;20231;-92
2021/01/17 06:25:39;;;;;;;22.58;13.02;;;-1.40;99.90;;;;;;5095819;28;20635;-91
2021/01/17 06:28:07;;;;;;;19.80;13.90;;;-1.40;99.90;;;;;;5112941;28;20199;-91
2021/01/17 06:30:34;;;;;;;21.85;13.65;;;-1.50;99.90;;;;;;5107205;28;20242;-90
2021/01/17 06:33:02;;;;;;;24.85;14.30;;;-1.60;99.90;;;;;;5093165;28;20257;-91
2021/01/17 06:35:33;;;;;;;24.00;13.85;;;-1.60;99.90;;;;;;5092610;28;20285;-91
2021/01/17 06:38:14;;;;;;;21.65;13.48;;;-1.60;99.90;;;;;;5093157;28;20196;-91
2021/01/17 06:40:44;;;;;;;21.55;13.52;;;-1.60;99.90;;;;;;5096054;28;20203;-91
2021/01/17 06:43:11;;;;;;;23.23;13.70;;;-1.60;99.90;;;;;;5096663;28;20212;-91
2021/01/17 06:45:39;;;;;;;24.77;13.30;;;-1.60;99.90;;;;;;5097070;28;20247;-91
2021/01/17 06:48:06;;;;;;;25.95;14.40;;;-1.60;99.90;;;;;;5096708;28;20216;-91
2021/01/17 06:50:33;;;;;;;27.83;14.18;;;-1.60;99.90;;;;;;5097110;28;20683;-91
2021/01/17 06:53:00;;;;;;;28.00;15.43;;;-1.50;99.90;;;;;;5096647;28;20211;-92
2021/01/17 06:55:27;;;;;;;25.48;15.52;;;-1.60;99.90;;;;;;5096526;28;20232;-90
2021/01/17 06:57:54;;;;;;;28.40;15.50;;;-1.60;99.90;;;;;;5096168;28;20200;-91
2021/01/17 07:00:20;;;;;;;27.92;15.93;;;-1.60;99.90;;;;;;5097176;28;20203;-91
2021/01/17 07:03:27;;;;;;;23.13;14.07;;;-1.60;99.90;;;;;;5096906;28;20218;-90
2021/01/17 07:06:21;;;;;;;23.50;14.10;;;-1.60;99.90;;;;;;5096536;28;20326;-91
2021/01/17 07:08:52;;;;;;;26.25;14.80;;;-1.60;99.90;;;;;;5097865;28;20223;-89
2021/01/17 07:11:22;;;;;;;24.05;14.38;;;-1.60;99.90;;;;;;5096007;28;20665;-91
2021/01/17 07:13:50;;;;;;;20.05;14.07;;;-1.60;99.90;;;;;;5098344;28;20199;-89
2021/01/17 07:16:31;;;;;;;23.95;13.95;;;-1.60;99.90;;;;;;5098012;28;20235;-89
2021/01/17 07:19:11;;;;;;;21.90;13.90;;;-1.60;99.90;;;;;;5098697;28;20199;-89
2021/01/17 07:21:41;;;;;;;20.40;13.50;;;-1.70;99.90;;;;;;5097049;28;20294;-89
2021/01/17 07:24:09;;;;;;;23.25;14.27;;;-1.60;99.90;;;;;;5097154;28;20208;-89
2021/01/17 07:26:57;;;;;;;26.02;15.95;;;-1.60;99.90;;;;;;5097157;28;20251;-89
2021/01/17 07:29:27;;;;;;;19.85;13.90;;;-1.60;99.90;;;;;;5096786;28;20227;-89
2021/01/17 07:31:55;;;;;;;24.45;15.95;;;-1.60;99.90;;;;;;5096514;28;20195;-89
2021/01/17 07:34:22;;;;;;;25.17;15.02;;;-1.60;99.90;;;;;;5096934;28;20196;-91
2021/01/17 07:36:50;;;;;;;20.65;13.95;;;-1.50;99.90;;;;;;5095668;28;20208;-90
2021/01/17 07:39:18;;;;;;;28.00;16.15;;;-1.50;99.90;;;;;;5105306;28;20199;-89
2021/01/17 07:41:48;;;;;;;24.35;14.23;;;-1.50;99.90;;;;;;5099936;28;20204;-88
2021/01/17 07:44:17;;;;;;;25.90;15.10;;;-1.50;99.90;;;;;;5110393;28;20208;-88
2021/01/17 07:46:43;;;;;;;27.45;15.63;;;-1.50;99.90;;;;;;5115678;28;20223;-88
2021/01/17 07:49:11;;;;;;;25.25;15.70;;;-1.50;99.90;;;;;;5104432;28;20219;-89
2021/01/17 07:51:38;;;;;;;24.23;14.88;;;-1.50;99.90;;;;;;5099863;28;20203;-88
2021/01/17 07:54:14;;;;;;;25.83;15.27;;;-1.50;99.90;;;;;;5100667;28;20592;-88
2021/01/17 07:56:42;;;;;;;26.00;16.48;;;-1.50;99.90;;;;;;5099966;28;20245;-88
2021/01/17 07:59:09;;;;;;;23.00;15.88;;;-1.40;99.90;;;;;;5096494;28;20222;-88
2021/01/17 08:01:46;;;;;;;24.95;13.75;;;-1.40;99.90;;;;;;5095736;28;20235;-88
2021/01/17 08:04:31;;;;;;;24.80;16.17;;;-1.40;99.90;;;;;;5097677;28;20203;-88
2021/01/17 08:06:59;;;;;;;25.92;14.80;;;-1.30;99.90;;;;;;5099816;28;20261;-90
2021/01/17 08:09:50;;;;;;;26.08;14.20;;;-1.30;99.90;;;;;;5097165;28;20227;-89
2021/01/17 08:12:39;;;;;;;26.83;15.00;;;-1.30;99.90;;;;;;5095555;28;20204;-90
2021/01/17 08:15:36;;;;;;;28.90;14.35;;;-1.30;99.90;;;;;;5095364;28;20294;-90
2021/01/17 08:18:02;;;;;;;26.50;14.43;;;-1.30;99.90;;;;;;5095367;28;20586;-89
2021/01/17 08:20:31;;;;;;;26.02;14.70;;;-1.20;99.90;;;;;;5095793;28;20211;-90
2021/01/17 08:23:14;;;;;;;28.05;15.52;;;-1.10;99.90;;;;;;5095123;28;20200;-89
2021/01/17 08:26:03;;;;;;;27.60;15.52;;;-1.00;99.90;;;;;;5094763;28;20223;-89
2021/01/17 08:28:31;;;;;;;25.00;14.68;;;-1.00;99.90;;;;;;5110645;28;20211;-89
2021/01/17 08:30:57;;;;;;;24.40;15.63;;;-0.90;99.90;;;;;;5132134;28;20176;-90
2021/01/17 08:33:27;;;;;;;21.10;14.75;;;-0.90;99.90;;;;;;5126201;28;20202;-90
2021/01/17 08:35:53;;;;;;;24.10;16.13;;;-1.00;99.90;;;;;;5118688;28;20211;-89
2021/01/17 08:38:22;;;;;;;29.38;15.88;;;-0.90;99.90;;;;;;5115984;28;20548;-89
2021/01/17 08:40:51;;;;;;;29.25;15.85;;;-0.90;99.90;;;;;;5114038;28;20245;-89
2021/01/17 08:43:29;;;;;;;24.27;15.35;;;-0.90;99.90;;;;;;5116629;28;20195;-89
2021/01/17 08:45:56;;;;;;;28.25;15.20;;;-1.00;99.90;;;;;;5117353;28;20215;-88
2021/01/17 08:48:24;;;;;;;25.15;15.20;;;-0.90;99.90;;;;;;5117167;28;20591;-89
2021/01/17 08:50:52;;;;;;;23.42;13.90;;;-0.90;99.90;;;;;;5120646;28;20211;-89
2021/01/17 08:53:32;;;;;;;29.58;16.35;;;-0.90;99.90;;;;;;5118547;28;20195;-89
2021/01/17 08:56:19;;;;;;;25.10;15.65;;;-0.90;99.90;;;;;;5118560;28;20614;-89
2021/01/17 08:58:47;;;;;;;26.40;15.23;;;-0.80;99.90;;;;;;5118461;28;20345;-88
2021/01/17 09:01:15;;;;;;;25.45;15.18;;;-0.80;99.90;;;;;;5117847;28;20664;-89
2021/01/17 09:03:53;;;;;;;22.67;14.07;;;-0.80;99.90;;;;;;5118293;28;20211;-89
2021/01/17 09:06:31;;;;;;;28.65;16.67;;;-0.70;99.90;;;;;;5121376;28;20230;-89
2021/01/17 09:09:07;;;;;;;25.92;15.18;;;-0.60;99.90;;;;;;5121927;28;20219;-90
2021/01/17 09:11:37;;;;;;;22.52;15.30;;;-0.60;99.90;;;;;;5117110;28;20240;-90
2021/01/17 09:14:26;;;;;;;27.10;16.00;;;-0.40;99.90;;;;;;5117150;28;20687;-89
2021/01/17 09:16:55;;;;;;;22.98;14.38;;;-0.40;99.90;;;;;;5115908;28;20223;-90
2021/01/17 09:19:24;;;;;;;21.27;12.00;;;-0.30;99.90;;;;;;5107334;28;20313;-90
2021/01/17 09:21:52;;;;;;;18.45;11.50;;;-0.20;99.90;;;;;;5102541;28;20199;-89
2021/01/17 09:27:41;;;;;;;21.42;13.43;;;-0.10;99.90;;;;;;5049865;28;20211;-90
2021/01/17 09:30:11;;;;;;;23.00;13.43;;;0.00;99.90;;;;;;5110635;28;20268;-90
2021/01/17 09:32:38;;;;;;;20.80;13.30;;;0.00;99.90;;;;;;5102541;28;20203;-89
2021/01/17 09:35:08;;;;;;;19.90;13.32;;;0.00;99.90;;;;;;5102496;28;20209;-90
2021/01/17 09:37:37;;;;;;;17.52;11.82;;;0.00;99.90;;;;;;5101424;28;20218;-90
2021/01/17 09:40:14;;;;;;;18.80;10.93;;;0.10;99.90;;;;;;5102744;28;20576;-88
2021/01/17 09:42:41;;;;;;;18.38;11.32;;;0.20;99.90;;;;;;5103693;28;20214;-89
2021/01/17 09:45:09;;;;;;;18.90;12.38;;;0.20;99.90;;;;;;5103982;28;20210;-90
2021/01/17 09:47:42;;;;;;;18.60;12.23;;;0.30;99.90;;;;;;5103789;28;20210;-90
2021/01/17 09:50:17;;;;;;;17.63;11.15;;;0.40;99.90;;;;;;5100743;28;20210;-90
2021/01/17 09:52:45;;;;;;;16.42;11.05;;;0.50;99.90;;;;;;5103586;28;20263;-91
2021/01/17 09:58:16;;;;;;;15.52;10.25;;;0.70;99.90;;;;;;5085643;28;20206;-91
2021/01/17 10:00:52;;;;;;;13.82;10.52;;;0.80;99.90;;;;;;5102315;28;20199;-90
2021/01/17 10:03:18;;;;;;;13.93;10.13;;;0.80;99.90;;;;;;5102647;28;20207;-91
2021/01/17 10:05:45;;;;;;;22.00;12.77;;;0.70;99.90;;;;;;5102186;28;20231;-91
2021/01/17 10:08:15;;;;;;;22.55;12.93;;;0.70;99.90;;;;;;5102249;28;20204;-91
2021/01/17 10:10:44;;;;;;;19.58;12.43;;;0.90;99.90;;;;;;5106475;28;20285;-89
2021/01/17 10:13:11;;;;;;;17.23;11.00;;;0.90;99.90;;;;;;5105681;28;20689;-90
2021/01/17 10:15:38;;;;;;;18.40;11.07;;;1.00;99.90;;;;;;5108091;28;20212;-91
2021/01/17 10:18:16;;;;;;;;;;;;;;;;;;;;;
2021/01/17 10:20:42;;;;;;;15.70;9.70;;;0.90;99.90;;;;;;5109395;28;20262;-89
2021/01/17 10:23:12;;;;;;;14.10;9.88;;;1.00;99.90;;;;;;5107435;28;20205;-90
2021/01/17 10:25:39;;;;;;;13.05;9.60;;;1.00;99.90;;;;;;5109049;28;20215;-88
2021/01/17 10:28:06;;;;;;;14.48;9.88;;;1.00;99.90;;;;;;5112260;28;20202;-89
2021/01/17 10:30:35;;;;;;;17.77;9.63;;;1.00;99.90;;;;;;5115806;28;20200;-87
2021/01/17 10:33:03;;;;;;;11.57;8.43;;;1.00;99.90;;;;;;5110440;28;20206;-90
2021/01/17 10:35:31;;;;;;;14.52;9.30;;;1.00;99.90;;;;;;5110058;28;20227;-90
2021/01/17 10:38:02;;;;;;;13.27;9.95;;;1.00;99.90;;;;;;5115608;28;20191;-90
2021/01/17 10:40:31;;;;;;;14.65;9.55;;;1.00;99.90;;;;;;5114532;28;20187;-89
2021/01/17 10:46:16;;;;;;;13.77;9.60;;;1.00;99.90;;;;;;5105694;28;20279;-87
2021/01/17 10:48:59;;;;;;;13.27;9.27;;;1.10;99.90;;;;;;5127450;28;20298;-89
2021/01/17 10:51:40;;;;;;;16.52;9.90;;;1.20;99.90;;;;;;5108899;28;20199;-89
2021/01/17 10:54:10;;;;;;;14.25;10.00;;;1.30;99.90;;;;;;5115882;28;20195;-90
2021/01/17 10:56:38;;;;;;;18.75;9.30;;;1.40;99.90;;;;;;5117813;28;20222;-90
2021/01/17 10:59:10;;;;;;;13.93;9.70;;;1.30;99.90;;;;;;5115929;28;20184;-92
2021/01/17 11:01:36;;;;;;;15.65;10.52;;;1.30;99.90;;;;;;5119715;28;20199;-88
2021/01/17 11:04:03;;;;;;;14.27;9.55;;;1.40;99.90;;;;;;5116481;28;20199;-90
2021/01/17 11:06:30;;;;;;;12.05;8.80;;;1.40;99.90;;;;;;5140974;22;20238;-70
2021/01/17 11:08:58;;;;;;;15.43;10.50;;;1.40;99.90;;;;;;5091302;28;20212;-70
2021/01/17 11:11:28;;;;;;;14.07;9.50;;;1.50;99.90;;;;;;5090514;28;20615;-69
2021/01/17 11:13:59;;;;;;;13.40;9.95;;;1.50;99.90;;;;;;5090966;28;20202;-69
2021/01/17 11:16:36;;;;;;;12.82;9.50;;;1.50;99.90;;;;;;5092095;28;20207;-69
2021/01/17 11:19:03;;;;;;;16.23;9.52;;;1.50;99.90;;;;;;5077276;28;20223;-70
2021/01/17 11:21:31;;;;;;;14.93;10.43;;;1.60;99.90;;;;;;5070521;28;20608;-69
2021/01/17 11:23:58;;;;;;;15.68;9.50;;;1.80;99.90;;;;;;5070131;28;20618;-69
2021/01/17 11:26:26;;;;;;;17.25;9.35;;;1.90;99.90;;;;;;5070820;28;20205;-69
2021/01/17 11:28:53;;;;;;;11.07;8.40;;;1.90;99.90;;;;;;5071292;28;20224;-69
2021/01/17 11:31:21;;;;;;;16.77;10.60;;;1.80;99.90;;;;;;5071143;28;20201;-70
2021/01/17 11:33:48;;;;;;;12.68;8.57;;;1.80;99.90;;;;;;5071127;28;20220;-68
2021/01/17 11:36:19;;;;;;;14.25;8.68;;;1.80;99.90;;;;;;5071258;28;20200;-69
2021/01/17 11:38:49;;;;;;;12.07;9.15;;;1.80;99.90;;;;;;5071179;28;20201;-69
2021/01/17 11:41:17;;;;;;;13.35;9.32;;;1.80;99.90;;;;;;5071408;28;20265;-70
2021/01/17 11:43:43;;;;;;;14.65;10.25;;;1.80;99.90;;;;;;5070582;28;20207;-69
2021/01/17 11:46:11;;;;;;;15.60;9.82;;;1.80;99.90;;;;;;5070822;28;20686;-69
2021/01/17 11:48:38;;;;;;;16.30;10.20;;;1.80;99.90;;;;;;5071044;28;20250;-69
2021/01/17 11:51:05;;;;;;;14.48;9.63;;;1.80;99.90;;;;;;5070609;28;20204;-69
2021/01/17 11:53:32;;;;;;;12.65;9.30;;;1.80;99.90;;;;;;5070650;28;20196;-69
2021/01/17 11:56:00;;;;;;;14.27;8.38;;;1.80;99.90;;;;;;5070631;28;20614;-69
2021/01/17 11:58:27;;;;;;;12.25;8.00;;;1.80;99.90;;;;;;5070971;28;20201;-69
2021/01/17 12:00:55;;;;;;;11.93;8.23;;;1.70;99.90;;;;;;5070553;28;20208;-69
2021/01/17 12:03:27;;;;;;;14.05;9.10;;;1.70;99.90;;;;;;5070028;28;20197;-69
2021/01/17 12:06:11;;;;;;;14.25;9.77;;;1.70;99.90;;;;;;5070426;28;20235;-69
2021/01/17 12:08:55;;;;;;;11.93;8.13;;;1.80;99.90;;;;;;5070650;28;20256;-69
2021/01/17 12:11:39;;;;;;;8.23;6.45;;;1.80;99.90;;;;;;5070712;28;20200;-68
2021/01/17 12:14:08;;;;;;;10.35;7.13;;;1.70;99.90;;;;;;5070434;28;20590;-69
2021/01/17 12:16:36;;;;;;;10.27;6.10;;;1.60;99.90;;;;;;5070308;28;20204;-69
2021/01/17 12:19:04;;;;;;;11.23;7.15;;;1.50;99.90;;;;;;5070151;28;20207;-69
2021/01/17 12:21:32;;;;;;;9.82;5.88;;;1.50;99.90;;;;;;5070024;28;20667;-68
2021/01/17 12:23:59;;;;;;;10.13;6.30;;;1.50;99.90;;;;;;5069767;28;20212;-68
2021/01/17 12:26:26;;;;;;;9.40;6.65;;;1.60;99.90;;;;;;5070512;28;20671;-69
2021/01/17 12:28:53;;;;;;;8.90;6.45;;;1.60;99.90;;;;;;5069795;28;20267;-68
2021/01/17 12:31:21;;;;;;;9.13;5.65;;;1.70;99.90;;;;;;5070608;28;20576;-69
2021/01/17 12:33:48;;;;;;;7.85;5.93;;;1.80;99.90;;;;;;5069659;28;20265;-69
2021/01/17 12:36:17;;;;;;;8.02;5.35;;;1.80;99.90;;;;;;5069778;28;20208;-69
2021/01/17 12:38:43;;;;;;;8.73;5.57;;;1.80;99.90;;;;;;5069513;28;20200;-71
2021/01/17 12:41:12;;;;;;;6.38;5.45;;;1.80;99.90;;;;;;5069559;28;20215;-69
2021/01/17 12:43:39;;;;;;;12.13;6.03;;;1.70;99.90;;;;;;5069754;28;20223;-69
2021/01/17 12:46:07;;;;;;;10.43;5.93;;;1.70;99.90;;;;;;5068287;28;20242;-69
2021/01/17 12:48:33;;;;;;;12.65;6.25;;;1.80;99.90;;;;;;5069471;28;20201;-69
2021/01/17 12:51:00;;;;;;;6.28;5.13;;;1.70;99.90;;;;;;5069726;28;20230;-69
2021/01/17 12:53:26;;;;;;;6.22;4.72;;;1.70;99.90;;;;;;5068948;28;20257;-69
2021/01/17 12:55:52;;;;;;;6.80;5.47;;;1.70;99.90;;;;;;5068371;28;20687;-68
2021/01/17 12:58:18;;;;;;;6.93;5.38;;;1.70;99.90;;;;;;5068488;28;20227;-69
2021/01/17 13:00:45;;;;;;;6.70;5.10;;;1.70;99.90;;;;;;5068343;28;20588;-68